Back to top

Dickinson, ND weather

Theodore Roosevelt Regional Airport, Dickinson, ND: 8/07/2020 14:56
Visibility10 statute milesclear sky
View 7-Day Forecast
Area Summary
Sky/CloudsSky Clear
Weather [last 24 hours]None
Pressure29.73 in.Hg (1007 hPa)
3-hour Pressure Tendency0.005905 in.Hg (0.2 hPa) Decreasing, then increasing
Dew Point54 °F (12.2 °C)
Relative Humidity23.8 %
Temperature97 °F (36.1 °C)red thermometer
Reading TimeMinimum to Maximum Temperature
6-hr ending 8/7@11:5660.1 °F to 90 °F (15.6 °C to 32.2 °C)
6-hr ending 8/7@05:5661 °F to 71.1 °F (16.1 °C to 21.7 °C)
6-hr ending 8/6@23:5671.1 °F to 84.9 °F (21.7 °C to 29.4 °C)
6-hr ending 8/6@17:5682.9 °F to 89.1 °F (28.3 °C to 31.7 °C)
24-hr ending 8/7@00:5654 °F to 89.1 °F (12.2 °C to 31.7 °C)
Wind12.7 MPH (11 KT) gusting to 18.4 MPH (16 KT)green arrow pointing 292.5 degrees
Wind FromWest/Northwest (290 Degrees)
Rolling 24-hr Peak Wind31.1 MPH (27 KT) on 8/6@16:22
Rolling 24-hr Peak Wind FromSoutheast (130 Degrees)
Twilight Begins05:04Sunshine Yesterday
Sunrise05:38N/A
Sunset20:14
Twilight Ends20:48
METARKDIK 072056Z AUTO 29011G16KT 10SM CLR 36/12 A2973 RMK AO2 SLP041 T03610122 55002
Tags: